createdAt,value
2018-05-08T00:00:18.518Z,18.51
2018-05-08T00:01:18.489Z,18.52
2018-05-08T00:02:18.496Z,18.52
2018-05-08T00:03:18.466Z,18.52
2018-05-08T00:04:18.458Z,18.48
2018-05-08T00:05:18.445Z,18.62
2018-05-08T00:06:18.449Z,18.58
2018-05-08T00:07:18.425Z,18.51
2018-05-08T00:08:18.417Z,18.57
2018-05-08T00:09:18.402Z,18.52
2018-05-08T00:10:18.390Z,18.48
2018-05-08T00:11:18.396Z,18.50
2018-05-08T00:12:18.369Z,18.47
2018-05-08T00:13:18.358Z,18.39
2018-05-08T00:14:18.348Z,18.32
2018-05-08T00:15:18.336Z,18.36
2018-05-08T00:16:18.344Z,18.36
2018-05-08T00:17:18.317Z,18.30
2018-05-08T00:18:18.304Z,18.41
2018-05-08T00:19:18.293Z,18.41
2018-05-08T00:20:18.282Z,18.47
2018-05-08T00:21:18.288Z,18.37
2018-05-08T00:22:18.259Z,18.51
2018-05-08T00:23:18.262Z,18.48
2018-05-08T00:24:18.237Z,18.45
2018-05-08T00:25:18.225Z,18.52
2018-05-08T00:26:18.218Z,18.51
2018-05-08T00:27:18.220Z,18.57
2018-05-08T00:28:18.195Z,18.52
2018-05-08T00:29:18.184Z,18.51
2018-05-08T00:30:18.176Z,18.47
2018-05-08T00:31:18.175Z,18.47
2018-05-08T00:32:18.148Z,18.47
2018-05-08T00:33:18.152Z,18.45
2018-05-08T00:34:18.126Z,18.44
2018-05-08T00:35:18.131Z,18.39
2018-05-08T00:36:18.118Z,18.39
2018-05-08T00:37:18.093Z,18.36
2018-05-08T00:38:18.097Z,18.41
2018-05-08T00:39:18.070Z,18.37
2018-05-08T00:40:18.062Z,18.33
2018-05-08T00:41:18.046Z,18.35
2018-05-08T00:42:18.037Z,18.37
2018-05-08T00:43:18.044Z,18.33
2018-05-08T00:44:18.016Z,18.37
2018-05-08T00:45:18.006Z,18.35
2018-05-08T00:46:17.993Z,18.35
2018-05-08T00:47:17.983Z,18.42
2018-05-08T00:48:17.972Z,18.33
2018-05-08T00:49:17.977Z,18.36
2018-05-08T00:50:17.956Z,18.37
2018-05-08T00:51:17.936Z,18.25
2018-05-08T00:52:17.929Z,18.21
2018-05-08T00:53:17.915Z,18.21
2018-05-08T00:54:17.926Z,18.27
2018-05-08T00:55:17.894Z,18.21
2018-05-08T00:56:17.889Z,18.07
2018-05-08T00:57:17.870Z,18.11
2018-05-08T00:58:17.859Z,18.12
2018-05-08T00:59:17.849Z,18.14
2018-05-08T01:00:17.854Z,18.17
2018-05-08T01:01:17.830Z,18.15
2018-05-08T01:02:17.819Z,18.17
2018-05-08T01:03:17.806Z,18.21
2018-05-08T01:04:17.796Z,18.11
2018-05-08T01:05:17.813Z,18.11
2018-05-08T01:06:17.770Z,18.05
2018-05-08T01:07:17.760Z,18.03
2018-05-08T01:08:17.749Z,18.03
2018-05-08T01:09:17.736Z,18.05
2018-05-08T01:10:17.726Z,18.08
2018-05-08T01:11:17.730Z,17.89
2018-05-08T01:12:17.705Z,17.99
2018-05-08T01:13:17.694Z,17.92
2018-05-08T01:14:17.683Z,17.79
2018-05-08T01:15:17.674Z,17.68
2018-05-08T01:16:17.661Z,17.48
2018-05-08T01:17:17.659Z,17.41
2018-05-08T01:18:17.635Z,17.19
2018-05-08T01:19:17.624Z,17.06
2018-05-08T01:20:17.613Z,16.88
2018-05-08T01:21:17.613Z,16.79
2018-05-08T01:22:17.591Z,16.70
2018-05-08T01:23:17.574Z,16.56
2018-05-08T01:24:17.570Z,16.41
2018-05-08T01:25:17.555Z,16.43
2018-05-08T01:26:17.559Z,16.39
2018-05-08T01:27:17.528Z,16.34
2018-05-08T01:28:17.530Z,16.28
2018-05-08T01:29:17.505Z,16.25
2018-05-08T01:30:17.496Z,16.24
2018-05-08T01:31:17.499Z,16.11
2018-05-08T01:32:17.472Z,16.04
2018-05-08T01:33:17.460Z,15.97
2018-05-08T01:34:17.450Z,15.92
2018-05-08T01:35:17.437Z,16.00
2018-05-08T01:36:17.440Z,15.86
2018-05-08T01:37:17.425Z,15.92
2018-05-08T01:38:17.401Z,15.76
2018-05-08T01:39:17.389Z,15.75
2018-05-08T01:40:17.376Z,15.67
2018-05-08T01:41:17.382Z,15.71
2018-05-08T01:42:17.352Z,15.74
2018-05-08T01:43:17.385Z,15.65
2018-05-08T01:44:17.325Z,15.64
2018-05-08T01:45:17.316Z,15.53
2018-05-08T01:46:17.300Z,15.53
2018-05-08T01:47:17.301Z,15.43
2018-05-08T01:48:17.297Z,15.35
2018-05-08T01:49:17.266Z,15.35
2018-05-08T01:50:17.259Z,15.23
2018-05-08T01:51:17.244Z,15.38
2018-05-08T01:52:17.229Z,15.32
2018-05-08T01:53:17.216Z,15.34
2018-05-08T01:54:17.225Z,15.43
2018-05-08T01:55:17.189Z,15.39
2018-05-08T01:56:17.185Z,15.35
2018-05-08T01:57:17.166Z,15.29
2018-05-08T01:58:17.153Z,15.35
2018-05-08T01:59:17.146Z,15.39
2018-05-08T02:00:17.145Z,15.38
2018-05-08T02:01:17.117Z,15.29
2018-05-08T02:02:17.104Z,15.38
2018-05-08T02:03:17.093Z,15.21
2018-05-08T02:04:17.080Z,15.19
2018-05-08T02:05:17.065Z,15.16
2018-05-08T02:06:17.066Z,15.13
2018-05-08T02:07:17.037Z,15.21
2018-05-08T02:08:17.029Z,15.11
2018-05-08T02:09:17.016Z,15.09
2018-05-08T02:10:17.004Z,15.06
2018-05-08T02:11:16.990Z,15.02
2018-05-08T02:12:16.996Z,15.01
2018-05-08T02:13:16.966Z,14.95
2018-05-08T02:14:16.952Z,14.84
2018-05-08T02:15:16.939Z,14.83
2018-05-08T02:16:16.943Z,14.78
2018-05-08T02:17:16.914Z,14.84
2018-05-08T02:18:16.917Z,14.75
2018-05-08T02:19:16.887Z,14.73
2018-05-08T02:20:16.958Z,14.69
2018-05-08T02:21:16.867Z,14.68
2018-05-08T02:22:16.850Z,14.64
2018-05-08T02:23:16.852Z,14.64
2018-05-08T02:24:16.823Z,14.52
2018-05-08T02:25:16.809Z,14.58
2018-05-08T02:26:16.796Z,14.55
2018-05-08T02:27:16.786Z,14.47
2018-05-08T02:28:16.785Z,14.46
2018-05-08T02:29:16.757Z,14.39
2018-05-08T02:30:16.743Z,14.36
2018-05-08T02:31:16.746Z,14.43
2018-05-08T02:32:16.718Z,14.39
2018-05-08T02:33:16.705Z,14.32
2018-05-08T02:34:16.711Z,14.32
2018-05-08T02:35:16.681Z,14.32
2018-05-08T02:36:16.667Z,14.25
2018-05-08T02:37:16.650Z,14.20
2018-05-08T02:38:16.640Z,14.22
2018-05-08T02:39:16.623Z,14.20
2018-05-08T02:40:16.628Z,14.33
2018-05-08T02:41:16.598Z,14.18
2018-05-08T02:42:16.586Z,14.22
2018-05-08T02:43:16.589Z,14.17
2018-05-08T02:44:16.559Z,14.20
2018-05-08T02:45:37.555Z,14.22
2018-05-08T02:46:16.530Z,14.27
2018-05-08T02:47:16.520Z,14.27
2018-05-08T02:48:16.505Z,14.21
2018-05-08T02:49:16.508Z,14.21
2018-05-08T02:50:16.478Z,14.18
2018-05-08T02:51:16.469Z,14.28
2018-05-08T02:52:16.452Z,14.18
2018-05-08T02:53:16.438Z,14.15
2018-05-08T02:54:16.427Z,14.07
2018-05-08T02:55:16.423Z,14.12
2018-05-08T02:56:16.397Z,14.07
2018-05-08T02:57:16.384Z,14.04
2018-05-08T02:58:16.371Z,14.12
2018-05-08T02:59:16.357Z,14.09
2018-05-08T03:00:16.381Z,14.06
2018-05-08T03:01:16.327Z,14.02
2018-05-08T03:02:16.319Z,14.03
2018-05-08T03:03:16.305Z,13.99
2018-05-08T03:04:16.292Z,13.99
2018-05-08T03:05:16.278Z,13.97
2018-05-08T03:06:16.278Z,13.88
2018-05-08T03:07:16.249Z,13.84
2018-05-08T03:08:16.238Z,13.79
2018-05-08T03:09:16.222Z,13.84
2018-05-08T03:10:16.215Z,13.77
2018-05-08T03:11:16.211Z,13.78
2018-05-08T03:12:16.181Z,13.64
2018-05-08T03:13:16.174Z,13.66
2018-05-08T03:14:16.152Z,13.64
2018-05-08T03:15:16.140Z,13.63
2018-05-08T03:16:16.128Z,13.52
2018-05-08T03:17:16.129Z,13.64
2018-05-08T03:18:16.096Z,13.63
2018-05-08T03:19:16.087Z,13.62
2018-05-08T03:20:16.070Z,13.62
2018-05-08T03:21:16.062Z,13.62
2018-05-08T03:22:16.077Z,13.55
2018-05-08T03:23:16.058Z,13.57
2018-05-08T03:24:16.020Z,13.44
2018-05-08T03:25:16.006Z,13.48
2018-05-08T03:26:15.992Z,13.38
2018-05-08T03:27:15.992Z,13.38
2018-05-08T03:28:15.967Z,13.33
2018-05-08T03:29:15.954Z,13.25
2018-05-08T03:30:15.938Z,13.22
2018-05-08T03:31:15.924Z,13.22
2018-05-08T03:32:15.914Z,13.15
2018-05-08T03:33:15.911Z,13.28
2018-05-08T03:34:15.884Z,13.10
2018-05-08T03:35:15.869Z,13.10
2018-05-08T03:36:15.855Z,13.14
2018-05-08T03:37:15.856Z,13.10
2018-05-08T03:38:15.828Z,13.03
2018-05-08T03:39:15.813Z,13.11
2018-05-08T03:40:15.817Z,13.11
2018-05-08T03:41:15.789Z,13.15
2018-05-08T03:42:15.775Z,13.11
2018-05-08T03:43:15.764Z,13.11
2018-05-08T03:44:15.748Z,13.08
2018-05-08T03:45:15.754Z,13.23
2018-05-08T03:46:15.719Z,13.26
2018-05-08T03:47:15.705Z,13.12
2018-05-08T03:48:15.693Z,13.12
2018-05-08T03:49:15.678Z,13.07
2018-05-08T03:50:15.666Z,13.10
2018-05-08T03:51:15.664Z,13.07
2018-05-08T03:52:15.637Z,13.15
2018-05-08T03:53:15.625Z,13.10
2018-05-08T03:54:15.609Z,13.14
2018-05-08T03:55:15.601Z,13.11
2018-05-08T03:56:15.595Z,13.11
2018-05-08T03:57:15.640Z,13.03
2018-05-08T03:58:15.553Z,13.00
2018-05-08T03:59:15.541Z,13.01
2018-05-08T04:00:15.541Z,13.11
2018-05-08T04:01:15.529Z,13.08
2018-05-08T04:02:15.497Z,13.07
2018-05-08T04:03:15.484Z,13.12
2018-05-08T04:04:15.472Z,13.12
2018-05-08T04:05:15.457Z,12.96
2018-05-08T04:06:15.446Z,13.05
2018-05-08T04:07:15.443Z,13.10
2018-05-08T04:08:15.421Z,13.01
2018-05-08T04:09:15.403Z,12.97
2018-05-08T04:10:15.402Z,13.05
2018-05-08T04:11:15.375Z,13.00
2018-05-08T04:12:15.360Z,13.07
2018-05-08T04:13:15.351Z,13.00
2018-05-08T04:14:15.376Z,13.10
2018-05-08T04:15:15.339Z,13.12
2018-05-08T04:16:15.307Z,13.15
2018-05-08T04:17:15.290Z,13.20
2018-05-08T04:18:15.278Z,13.36
2018-05-08T04:19:15.264Z,13.44
2018-05-08T04:20:15.259Z,13.54
2018-05-08T04:21:15.258Z,13.66
2018-05-08T04:22:15.242Z,13.71
2018-05-08T04:23:15.213Z,13.71
2018-05-08T04:24:15.194Z,13.81
2018-05-08T04:25:15.182Z,13.88
2018-05-08T04:26:15.171Z,13.99
2018-05-08T04:27:15.153Z,14.10
2018-05-08T04:28:15.157Z,14.18
2018-05-08T04:29:15.129Z,14.15
2018-05-08T04:30:15.117Z,14.39
2018-05-08T04:31:15.101Z,14.47
2018-05-08T04:32:15.087Z,14.57
2018-05-08T04:33:15.089Z,14.72
2018-05-08T04:34:15.060Z,14.95
2018-05-08T04:35:15.047Z,15.09
2018-05-08T04:36:15.034Z,15.13
2018-05-08T04:37:15.019Z,15.25
2018-05-08T04:38:36.025Z,15.20
2018-05-08T04:39:14.993Z,15.36
2018-05-08T04:40:14.984Z,15.38
2018-05-08T04:41:14.965Z,15.41
2018-05-08T04:42:14.969Z,15.41
2018-05-08T04:43:14.941Z,15.38
2018-05-08T04:44:14.942Z,15.38
2018-05-08T04:45:14.912Z,15.35
2018-05-08T04:46:14.897Z,15.23
2018-05-08T04:47:14.890Z,15.29
2018-05-08T04:48:14.873Z,15.17
2018-05-08T04:49:14.878Z,15.10
2018-05-08T04:50:14.899Z,15.13
2018-05-08T04:51:14.838Z,15.14
2018-05-08T04:52:14.818Z,15.20
2018-05-08T04:53:14.813Z,15.19
2018-05-08T04:54:14.818Z,15.29
2018-05-08T04:55:14.782Z,15.34
2018-05-08T04:56:14.785Z,15.44
2018-05-08T04:57:14.756Z,15.56
2018-05-08T04:58:14.743Z,15.67
2018-05-08T04:59:14.733Z,15.75
2018-05-08T05:00:14.727Z,15.69
2018-05-08T05:01:14.718Z,15.80
2018-05-08T05:02:14.691Z,15.76
2018-05-08T05:03:14.679Z,15.94
2018-05-08T05:04:14.664Z,16.01
2018-05-08T05:05:14.654Z,15.92
2018-05-08T05:06:14.650Z,15.94
2018-05-08T05:07:14.625Z,15.86
2018-05-08T05:08:14.625Z,15.94
2018-05-08T05:09:14.601Z,15.94
2018-05-08T05:10:14.592Z,16.02
2018-05-08T05:11:14.590Z,16.08
2018-05-08T05:12:14.560Z,16.14
2018-05-08T05:13:14.552Z,16.20
2018-05-08T05:14:14.534Z,16.28
2018-05-08T05:15:14.524Z,16.33
2018-05-08T05:16:14.512Z,16.41
2018-05-08T05:17:14.515Z,16.45
2018-05-08T05:18:14.485Z,16.35
2018-05-08T05:19:14.473Z,16.45
2018-05-08T05:20:14.461Z,16.41
2018-05-08T05:21:14.447Z,16.48
2018-05-08T05:22:14.435Z,16.46
2018-05-08T05:23:14.434Z,16.41
2018-05-08T05:24:14.423Z,16.48
2018-05-08T05:25:14.396Z,16.52
2018-05-08T05:26:14.383Z,16.50
2018-05-08T05:27:14.370Z,16.66
2018-05-08T05:28:14.372Z,16.70
2018-05-08T05:29:14.361Z,16.61
2018-05-08T05:30:14.333Z,16.79
2018-05-08T05:31:14.320Z,16.88
2018-05-08T05:32:14.308Z,16.96
2018-05-08T05:33:14.312Z,17.04
2018-05-08T05:34:14.284Z,17.08
2018-05-08T05:35:14.288Z,17.11
2018-05-08T05:36:14.258Z,17.25
2018-05-08T05:37:14.248Z,17.25
2018-05-08T05:38:14.234Z,17.38
2018-05-08T05:39:14.236Z,17.48
2018-05-08T05:40:14.211Z,17.51
2018-05-08T05:41:14.201Z,17.51
2018-05-08T05:42:14.183Z,17.44
2018-05-08T05:43:14.174Z,17.37
2018-05-08T05:44:14.176Z,17.43
2018-05-08T05:45:14.165Z,17.49
2018-05-08T05:46:14.151Z,17.36
2018-05-08T05:47:14.128Z,17.31
2018-05-08T05:48:14.114Z,17.19
2018-05-08T05:49:14.103Z,17.21
2018-05-08T05:50:14.088Z,17.19
2018-05-08T05:51:14.093Z,17.15
2018-05-08T05:52:14.063Z,17.15
2018-05-08T05:53:14.081Z,17.18
2018-05-08T05:54:14.041Z,17.16
2018-05-08T05:55:14.042Z,17.31
2018-05-08T05:56:14.017Z,17.28
2018-05-08T05:57:14.004Z,17.28
2018-05-08T05:58:13.989Z,17.34
2018-05-08T05:59:13.978Z,17.46
2018-05-08T06:00:34.980Z,17.41
2018-05-08T06:01:13.955Z,17.52
2018-05-08T06:02:13.952Z,17.51
2018-05-08T06:03:13.947Z,17.46
2018-05-08T06:04:13.922Z,17.55
2018-05-08T06:05:13.905Z,17.66
2018-05-08T06:06:13.895Z,17.68
2018-05-08T06:07:13.882Z,17.71
2018-05-08T06:08:13.872Z,17.72
2018-05-08T06:09:13.872Z,17.84
2018-05-08T06:10:13.844Z,17.75
2018-05-08T06:11:13.836Z,17.90
2018-05-08T06:12:13.850Z,17.95
2018-05-08T06:13:13.810Z,17.87
2018-05-08T06:14:13.799Z,17.93
2018-05-08T06:15:13.783Z,17.89
2018-05-08T06:16:13.771Z,17.93
2018-05-08T06:17:13.758Z,18.00
2018-05-08T06:18:13.765Z,18.11
2018-05-08T06:19:13.737Z,18.10
2018-05-08T06:20:13.744Z,18.27
2018-05-08T06:21:13.713Z,18.23
2018-05-08T06:22:13.700Z,18.27
2018-05-08T06:23:13.687Z,18.27
2018-05-08T06:24:13.675Z,18.25
2018-05-08T06:25:13.677Z,18.32
2018-05-08T06:26:13.650Z,18.45
2018-05-08T06:27:13.641Z,18.45
2018-05-08T06:28:13.627Z,18.41
2018-05-08T06:29:13.614Z,18.52
2018-05-08T06:30:13.619Z,18.51
2018-05-08T06:31:13.593Z,18.52
2018-05-08T06:32:13.589Z,18.63
2018-05-08T06:33:13.572Z,18.52
2018-05-08T06:34:13.556Z,18.54
2018-05-08T06:35:13.563Z,18.48
2018-05-08T06:36:13.534Z,18.51
2018-05-08T06:37:13.524Z,18.57
2018-05-08T06:38:13.523Z,18.62
2018-05-08T06:39:13.543Z,18.70
2018-05-08T06:40:13.488Z,18.73
2018-05-08T06:41:13.474Z,18.73
2018-05-08T06:42:13.464Z,18.76
2018-05-08T06:43:13.448Z,18.87
2018-05-08T06:44:13.495Z,18.85
2018-05-08T06:45:13.506Z,18.82
2018-05-08T06:46:13.431Z,18.92
2018-05-08T06:47:13.407Z,18.98
2018-05-08T06:48:13.395Z,19.10
2018-05-08T06:49:13.380Z,19.21
2018-05-08T06:50:14.372Z,19.13
2018-05-08T06:51:13.374Z,19.21
2018-05-08T06:52:13.362Z,19.22
2018-05-08T06:53:13.338Z,19.26
2018-05-08T06:54:13.325Z,19.31
2018-05-08T06:55:13.313Z,19.28
2018-05-08T06:56:13.303Z,19.36
2018-05-08T06:57:13.290Z,19.36
2018-05-08T06:58:13.299Z,19.41
2018-05-08T06:59:13.282Z,19.59
2018-05-08T07:00:13.256Z,19.55
2018-05-08T07:01:13.262Z,19.61
2018-05-08T07:02:13.233Z,19.66
2018-05-08T07:03:13.220Z,19.65
2018-05-08T07:04:13.213Z,19.76
2018-05-08T07:05:13.215Z,19.83
2018-05-08T07:06:13.183Z,19.88
2018-05-08T07:07:13.175Z,19.91
2018-05-08T07:08:13.180Z,19.88
2018-05-08T07:09:13.193Z,19.91
2018-05-08T07:10:13.143Z,19.96
2018-05-08T07:11:13.145Z,20.01
2018-05-08T07:12:13.800Z,20.01
2018-05-08T07:13:13.131Z,20.21
2018-05-08T07:14:13.100Z,20.17
2018-05-08T07:15:13.118Z,20.21
2018-05-08T07:16:13.289Z,20.35
2018-05-08T07:17:13.135Z,20.55
2018-05-08T07:18:13.082Z,20.66
2018-05-08T07:19:13.120Z,20.94
2018-05-08T07:20:13.034Z,20.88
2018-05-08T07:21:13.018Z,20.85
2018-05-08T07:22:13.009Z,20.92
2018-05-08T07:23:13.027Z,20.91
2018-05-08T07:24:12.988Z,21.03
2018-05-08T07:25:12.993Z,21.01
2018-05-08T07:26:12.968Z,20.94
2018-05-08T07:27:12.961Z,20.92
2018-05-08T07:28:12.945Z,20.92
2018-05-08T07:29:12.936Z,21.06
2018-05-08T07:30:12.944Z,21.04
2018-05-08T07:31:12.916Z,20.95
2018-05-08T07:32:12.904Z,21.03
2018-05-08T07:33:12.900Z,21.03
2018-05-08T07:34:12.897Z,21.12
2018-05-08T07:35:12.878Z,21.25
2018-05-08T07:36:12.860Z,21.24
2018-05-08T07:37:12.854Z,21.32
2018-05-08T07:38:12.923Z,21.32
2018-05-08T07:39:12.833Z,21.46
2018-05-08T07:40:12.818Z,21.37
2018-05-08T07:41:12.833Z,21.54
2018-05-08T07:42:12.806Z,21.59
2018-05-08T07:43:12.809Z,21.68
2018-05-08T07:44:12.779Z,21.56
2018-05-08T07:45:12.774Z,21.58
2018-05-08T07:46:12.765Z,21.59
2018-05-08T07:47:12.774Z,21.68
2018-05-08T07:48:12.739Z,21.82
2018-05-08T07:49:12.732Z,21.88
2018-05-08T07:50:12.723Z,22.03
2018-05-08T07:51:12.708Z,22.10
2018-05-08T07:52:12.718Z,21.99
2018-05-08T07:53:12.691Z,21.84
2018-05-08T07:54:12.681Z,21.67
2018-05-08T07:55:12.684Z,21.65
2018-05-08T07:56:12.661Z,21.72
2018-05-08T07:57:12.664Z,21.72
2018-05-08T07:58:12.641Z,21.77
2018-05-08T07:59:12.631Z,21.74
2018-05-08T08:00:12.623Z,21.83
2018-05-08T08:01:12.630Z,21.83
2018-05-08T08:02:12.605Z,21.72
2018-05-08T08:03:12.611Z,21.75
2018-05-08T08:04:12.579Z,21.86
2018-05-08T08:05:12.575Z,21.91
2018-05-08T08:06:12.580Z,22.10
2018-05-08T08:07:12.565Z,22.09
2018-05-08T08:08:12.542Z,22.09
2018-05-08T08:09:12.535Z,22.21
2018-05-08T08:10:12.519Z,22.17
2018-05-08T08:11:12.514Z,22.15
2018-05-08T08:12:12.517Z,22.21
2018-05-08T08:13:12.505Z,22.24
2018-05-08T08:14:12.479Z,22.30
2018-05-08T08:15:12.477Z,22.27
2018-05-08T08:16:12.465Z,22.43
2018-05-08T08:17:12.475Z,22.43
2018-05-08T08:18:12.442Z,22.46
2018-05-08T08:19:12.435Z,22.55
2018-05-08T08:20:12.423Z,22.64
2018-05-08T08:21:12.415Z,22.75
2018-05-08T08:22:12.405Z,22.73
2018-05-08T08:23:12.410Z,22.80
2018-05-08T08:24:12.385Z,22.88
2018-05-08T08:25:12.375Z,23.00
2018-05-08T08:26:12.364Z,23.16
2018-05-08T08:27:12.354Z,23.15
2018-05-08T08:28:12.364Z,23.01
2018-05-08T08:29:12.335Z,23.15
2018-05-08T08:30:12.330Z,23.05
2018-05-08T08:31:12.325Z,23.16
2018-05-08T08:32:12.310Z,23.25
2018-05-08T08:33:12.312Z,23.25
2018-05-08T08:34:12.293Z,23.40
2018-05-08T08:35:12.280Z,23.43
2018-05-08T08:36:12.270Z,23.36
2018-05-08T08:37:12.259Z,23.36
2018-05-08T08:38:12.250Z,23.36
2018-05-08T08:39:12.256Z,23.55
2018-05-08T08:40:12.235Z,23.63
2018-05-08T08:41:12.228Z,23.57
2018-05-08T08:42:12.210Z,23.60
2018-05-08T08:43:12.207Z,23.58
2018-05-08T08:44:12.218Z,23.66
2018-05-08T08:45:12.184Z,23.66
2018-05-08T08:46:12.177Z,23.66
2018-05-08T08:47:12.169Z,23.69
2018-05-08T08:48:12.161Z,23.75
2018-05-08T08:49:12.158Z,23.85
2018-05-08T08:50:12.158Z,23.93
2018-05-08T08:51:12.133Z,23.91
2018-05-08T08:52:12.127Z,23.97
2018-05-08T08:53:12.122Z,24.20
2018-05-08T08:54:12.103Z,24.20
2018-05-08T08:55:12.118Z,24.16
2018-05-08T08:56:12.090Z,24.43
2018-05-08T08:57:12.096Z,24.88
2018-05-08T08:58:12.082Z,25.25
2018-05-08T08:59:12.068Z,25.58
2018-05-08T09:00:12.053Z,26.10
2018-05-08T09:01:12.064Z,26.47
2018-05-08T09:02:12.034Z,26.43
2018-05-08T09:03:12.030Z,26.50
2018-05-08T09:04:12.037Z,26.77
2018-05-08T09:05:12.012Z,26.72
2018-05-08T09:06:12.000Z,26.67
2018-05-08T09:07:12.009Z,26.88
2018-05-08T09:08:11.995Z,26.60
2018-05-08T09:09:11.977Z,27.02
2018-05-08T09:10:11.969Z,26.88
2018-05-08T09:11:12.005Z,27.69
2018-05-08T09:12:11.953Z,28.36
2018-05-08T09:13:11.963Z,28.56
2018-05-08T09:14:11.935Z,27.77
2018-05-08T09:15:11.927Z,27.99
2018-05-08T09:16:11.926Z,27.96
2018-05-08T09:17:11.918Z,28.34
2018-05-08T09:18:11.903Z,28.30
2018-05-08T09:19:11.920Z,28.61
2018-05-08T09:20:11.894Z,27.74
2018-05-08T09:21:11.878Z,27.28
2018-05-08T09:22:11.891Z,27.14
2018-05-08T09:23:12.484Z,27.37
2018-05-08T09:24:11.859Z,27.59
2018-05-08T09:25:11.854Z,27.62
2018-05-08T09:26:11.848Z,27.88
2018-05-08T09:27:11.847Z,28.22
2018-05-08T09:28:11.842Z,27.97
2018-05-08T09:29:11.821Z,28.64
2018-05-08T09:30:32.829Z,29.14
2018-05-08T09:31:11.808Z,29.70
2018-05-08T09:32:11.809Z,30.08
2018-05-08T09:33:11.800Z,30.45
2018-05-08T09:34:11.798Z,30.57
2018-05-08T09:35:11.792Z,30.80
2018-05-08T09:36:11.803Z,30.92
2018-05-08T09:37:11.861Z,30.23
2018-05-08T09:38:11.786Z,29.70
2018-05-08T09:39:11.779Z,30.29
2018-05-08T09:40:11.773Z,30.58
2018-05-08T09:41:11.786Z,30.73
2018-05-08T09:42:11.770Z,30.97
2018-05-08T09:43:11.768Z,30.99
2018-05-08T09:44:11.785Z,31.04
2018-05-08T09:45:11.765Z,30.95
2018-05-08T09:46:11.785Z,30.47
2018-05-08T09:47:11.765Z,29.06
2018-05-08T09:48:11.762Z,29.24
2018-05-08T09:49:11.776Z,29.76
2018-05-08T09:50:11.759Z,30.20
2018-05-08T09:51:11.762Z,30.46
2018-05-08T09:52:11.775Z,30.70
2018-05-08T09:53:11.761Z,30.77
2018-05-08T09:54:11.809Z,31.13
2018-05-08T09:55:11.764Z,31.34
2018-05-08T09:56:11.761Z,31.63
2018-05-08T09:57:11.762Z,31.68
2018-05-08T09:58:11.775Z,32.11
2018-05-08T09:59:11.764Z,32.15
2018-05-08T10:00:11.765Z,31.84
2018-05-08T10:01:11.786Z,31.43
2018-05-08T10:02:11.767Z,30.55
2018-05-08T10:03:11.775Z,30.84
2018-05-08T10:04:11.769Z,30.92
2018-05-08T10:05:11.763Z,31.09
2018-05-08T10:06:11.784Z,30.45
2018-05-08T10:07:11.770Z,30.94
2018-05-08T10:08:11.772Z,30.77
2018-05-08T10:09:11.776Z,31.12
2018-05-08T10:10:11.779Z,31.46
2018-05-08T10:11:11.791Z,31.69
2018-05-08T10:12:11.796Z,30.51
2018-05-08T10:13:11.781Z,29.74
2018-05-08T10:14:11.785Z,29.71
2018-05-08T10:15:11.786Z,29.89
2018-05-08T10:16:11.790Z,30.34
2018-05-08T10:17:11.804Z,30.89
2018-05-08T10:18:11.793Z,31.31
2018-05-08T10:19:11.798Z,31.57
2018-05-08T10:20:11.814Z,32.08
2018-05-08T10:21:11.800Z,32.45
2018-05-08T10:22:11.802Z,32.33
2018-05-08T10:23:11.806Z,32.10
2018-05-08T10:24:11.823Z,32.04
2018-05-08T10:25:11.810Z,32.19
2018-05-08T10:26:11.813Z,32.26
2018-05-08T10:27:11.818Z,32.29
2018-05-08T10:28:11.833Z,32.55
2018-05-08T10:29:11.821Z,32.75
2018-05-08T10:30:11.825Z,32.89
2018-05-08T10:31:11.840Z,33.06
2018-05-08T10:32:11.830Z,33.01
2018-05-08T10:33:11.834Z,32.00
2018-05-08T10:34:11.836Z,31.93
2018-05-08T10:35:11.855Z,32.03
2018-05-08T10:36:11.858Z,32.38
2018-05-08T10:37:11.845Z,32.15
2018-05-08T10:38:11.847Z,32.33
2018-05-08T10:39:11.852Z,32.44
2018-05-08T10:40:11.875Z,32.35
2018-05-08T10:41:11.853Z,32.45
2018-05-08T10:42:11.862Z,32.55
2018-05-08T10:43:11.867Z,32.63
2018-05-08T10:44:11.884Z,32.19
2018-05-08T10:45:11.873Z,32.18
2018-05-08T10:46:11.889Z,32.15
2018-05-08T10:47:11.879Z,32.14
2018-05-08T10:48:11.883Z,32.56
2018-05-08T10:49:11.887Z,32.60
2018-05-08T10:50:11.903Z,32.78
2018-05-08T10:51:11.912Z,32.63
2018-05-08T10:52:11.897Z,32.67
2018-05-08T10:53:11.898Z,32.77
2018-05-08T10:54:11.909Z,33.01
2018-05-08T10:55:11.923Z,33.18
2018-05-08T10:56:11.917Z,33.01
2018-05-08T10:57:11.922Z,33.09
2018-05-08T10:58:11.924Z,33.23
2018-05-08T10:59:11.926Z,33.12
2018-05-08T11:00:11.942Z,33.19
2018-05-08T11:01:11.935Z,32.97
2018-05-08T11:02:11.941Z,33.03
2018-05-08T11:03:11.960Z,33.00
2018-05-08T11:04:11.950Z,32.92
2018-05-08T11:05:11.955Z,32.92
2018-05-08T11:06:11.972Z,32.92
2018-05-08T11:07:11.976Z,32.94
2018-05-08T11:08:11.965Z,33.01
2018-05-08T11:09:11.969Z,32.99
2018-05-08T11:10:11.974Z,32.93
2018-05-08T11:11:11.980Z,32.41
2018-05-08T11:12:12.001Z,32.33
2018-05-08T11:13:11.988Z,32.23
2018-05-08T11:14:11.991Z,32.43
2018-05-08T11:15:11.999Z,32.63
2018-05-08T11:16:12.001Z,32.87
2018-05-08T11:17:12.013Z,32.82
2018-05-08T11:18:12.026Z,32.96
2018-05-08T11:19:12.016Z,33.01
2018-05-08T11:20:12.021Z,33.01
2018-05-08T11:21:12.023Z,33.01
2018-05-08T11:22:12.027Z,33.01
2018-05-08T11:23:12.046Z,33.09
2018-05-08T11:24:12.037Z,32.82
2018-05-08T11:25:12.043Z,32.28
2018-05-08T11:26:12.062Z,32.47
2018-05-08T11:27:12.052Z,32.45
2018-05-08T11:28:12.055Z,32.51
2018-05-08T11:29:12.061Z,32.60
2018-05-08T11:30:12.065Z,32.63
2018-05-08T11:31:12.088Z,32.56
2018-05-08T11:32:12.076Z,32.57
2018-05-08T11:33:12.077Z,32.50
2018-05-08T11:34:12.083Z,32.15
2018-05-08T11:35:12.086Z,31.68
2018-05-08T11:36:12.105Z,31.54
2018-05-08T11:37:12.094Z,31.47
2018-05-08T11:38:12.100Z,31.06
2018-05-08T11:39:12.222Z,30.75
2018-05-08T11:40:12.110Z,31.23
2018-05-08T11:41:12.112Z,31.80
2018-05-08T11:42:12.113Z,32.11
2018-05-08T11:43:12.126Z,32.62
2018-05-08T11:44:12.126Z,32.69
2018-05-08T11:45:12.209Z,32.07
2018-05-08T11:46:12.135Z,31.92
2018-05-08T11:47:12.155Z,32.00
2018-05-08T11:48:12.144Z,32.11
2018-05-08T11:49:12.145Z,32.04
2018-05-08T11:50:12.154Z,32.21
2018-05-08T11:51:12.155Z,32.22
2018-05-08T11:52:12.174Z,32.25
2018-05-08T11:53:12.166Z,32.06
2018-05-08T11:54:12.168Z,31.69
2018-05-08T11:55:12.189Z,31.84
2018-05-08T11:56:12.176Z,31.81
2018-05-08T11:57:12.179Z,31.93
2018-05-08T11:58:12.182Z,32.10
2018-05-08T11:59:12.189Z,32.43
2018-05-08T12:00:12.212Z,32.74
2018-05-08T12:01:12.196Z,32.92
2018-05-08T12:02:12.203Z,32.97
2018-05-08T12:03:12.227Z,32.70
2018-05-08T12:04:12.213Z,31.78
2018-05-08T12:05:13.881Z,30.97
2018-05-08T12:06:12.220Z,30.80
2018-05-08T12:07:12.227Z,30.42
2018-05-08T12:08:12.229Z,30.65
2018-05-08T12:09:12.332Z,30.95
2018-05-08T12:10:12.239Z,31.20
2018-05-08T12:11:12.243Z,31.31
2018-05-08T12:12:12.245Z,31.06
2018-05-08T12:13:12.252Z,31.23
2018-05-08T12:14:12.267Z,30.97
2018-05-08T12:15:12.262Z,31.09
2018-05-08T12:16:12.259Z,30.53
2018-05-08T12:17:12.267Z,30.77
2018-05-08T12:18:12.289Z,30.51
2018-05-08T12:19:12.273Z,30.24
2018-05-08T12:20:12.273Z,29.90
2018-05-08T12:21:12.282Z,29.79
2018-05-08T12:22:12.302Z,30.16
2018-05-08T12:23:12.287Z,30.27
2018-05-08T12:24:12.292Z,30.22
2018-05-08T12:25:12.299Z,30.46
2018-05-08T12:26:12.301Z,30.45
2018-05-08T12:27:12.324Z,30.47
2018-05-08T12:28:12.305Z,30.95
2018-05-08T12:29:12.306Z,31.04
2018-05-08T12:30:12.310Z,31.10
2018-05-08T12:31:12.312Z,31.35
2018-05-08T12:32:12.321Z,31.68
2018-05-08T12:33:12.333Z,31.81
2018-05-08T12:34:12.325Z,31.70
2018-05-08T12:35:12.331Z,31.39
2018-05-08T12:36:12.430Z,31.44
2018-05-08T12:37:12.333Z,31.01
2018-05-08T12:38:12.352Z,30.82
2018-05-08T12:39:12.341Z,30.60
2018-05-08T12:40:12.344Z,30.42
2018-05-08T12:41:12.346Z,30.29
2018-05-08T12:42:12.454Z,30.47
2018-05-08T12:43:12.366Z,30.75
2018-05-08T12:44:12.354Z,30.99
2018-05-08T12:45:12.357Z,31.17
2018-05-08T12:46:12.357Z,31.44
2018-05-08T12:47:12.375Z,31.47
2018-05-08T12:48:12.381Z,31.54
2018-05-08T12:49:12.388Z,31.61
2018-05-08T12:50:12.369Z,31.66
2018-05-08T12:51:12.374Z,31.70
2018-05-08T12:52:12.390Z,31.89